createdAt,value
2023-05-18T00:01:23.495Z,10.90
2023-05-18T00:03:53.961Z,10.90
2023-05-18T00:06:22.527Z,10.80
2023-05-18T00:08:49.367Z,10.90
2023-05-18T00:11:16.233Z,10.90
2023-05-18T00:13:43.632Z,10.90
2023-05-18T00:16:13.626Z,10.80
2023-05-18T00:18:42.916Z,10.90
2023-05-18T00:21:10.199Z,10.80
2023-05-18T00:23:39.451Z,10.70
2023-05-18T00:26:06.246Z,10.70
2023-05-18T00:28:32.985Z,10.60
2023-05-18T00:31:00.528Z,10.60
2023-05-18T00:33:27.274Z,10.50
2023-05-18T00:35:54.125Z,10.50
2023-05-18T00:38:20.854Z,10.40
2023-05-18T00:40:47.606Z,10.50
2023-05-18T00:43:14.389Z,10.40
2023-05-18T00:45:41.168Z,10.40
2023-05-18T00:48:08.024Z,10.40
2023-05-18T00:50:36.211Z,10.30
2023-05-18T00:53:03.113Z,10.30
2023-05-18T00:55:30.222Z,10.30
2023-05-18T00:58:02.198Z,10.30
2023-05-18T01:00:29.599Z,10.30
2023-05-18T01:02:57.272Z,10.30
2023-05-18T01:05:24.177Z,10.30
2023-05-18T01:07:51.238Z,10.30
2023-05-18T01:10:20.673Z,10.10
2023-05-18T01:13:23.199Z,10.00
2023-05-18T01:15:57.320Z,10.10
2023-05-18T01:18:55.907Z,10.10
2023-05-18T01:22:04.109Z,10.10
2023-05-18T01:24:55.448Z,10.10
2023-05-18T01:27:25.563Z,10.10
2023-05-18T01:29:56.293Z,10.10
2023-05-18T01:32:23.324Z,10.00
2023-05-18T01:34:51.838Z,9.90
2023-05-18T01:37:18.651Z,10.00
2023-05-18T01:39:45.523Z,9.90
2023-05-18T01:42:26.810Z,9.90
2023-05-18T01:45:09.110Z,9.90
2023-05-18T01:47:43.166Z,9.80
2023-05-18T01:50:17.182Z,9.80
2023-05-18T01:52:51.732Z,9.70
2023-05-18T01:55:24.565Z,9.80
2023-05-18T01:57:54.481Z,9.80
2023-05-18T02:00:26.389Z,9.70
2023-05-18T02:02:53.239Z,9.80
2023-05-18T02:05:20.260Z,9.70
2023-05-18T02:07:49.920Z,9.60
2023-05-18T02:10:16.842Z,9.60
2023-05-18T02:12:43.702Z,9.60
2023-05-18T02:15:10.984Z,9.70
2023-05-18T02:17:38.231Z,9.70
2023-05-18T02:20:07.924Z,9.70
2023-05-18T02:22:35.679Z,9.60
2023-05-18T02:25:05.050Z,9.60
2023-05-18T02:27:33.647Z,9.60
2023-05-18T02:30:00.560Z,9.60
2023-05-18T02:32:27.842Z,9.60
2023-05-18T02:34:54.739Z,9.60
2023-05-18T02:37:23.165Z,9.60
2023-05-18T02:39:50.743Z,9.60
2023-05-18T02:42:17.568Z,9.50
2023-05-18T02:44:44.470Z,9.40
2023-05-18T02:47:11.344Z,9.50
2023-05-18T02:49:38.102Z,9.50
2023-05-18T02:52:05.416Z,9.40
2023-05-18T02:54:32.192Z,9.30
2023-05-18T02:56:58.994Z,9.30
2023-05-18T02:59:27.666Z,9.20
2023-05-18T03:01:54.409Z,9.30
2023-05-18T03:04:21.916Z,9.30
2023-05-18T03:06:52.823Z,9.30
2023-05-18T03:09:19.961Z,9.30
2023-05-18T03:11:46.702Z,9.30
2023-05-18T03:14:13.501Z,9.20
2023-05-18T03:16:40.467Z,9.20
2023-05-18T03:19:07.325Z,9.20
2023-05-18T03:21:35.914Z,9.20
2023-05-18T03:24:03.588Z,9.20
2023-05-18T03:26:31.283Z,9.20
2023-05-18T03:28:59.025Z,9.10
2023-05-18T03:31:26.090Z,9.10
2023-05-18T03:33:53.253Z,9.10
2023-05-18T03:36:22.460Z,9.00
2023-05-18T03:38:49.384Z,9.00
2023-05-18T03:41:16.271Z,9.00
2023-05-18T03:43:43.038Z,9.00
2023-05-18T03:46:10.122Z,9.00
2023-05-18T03:48:36.970Z,9.10
2023-05-18T03:51:05.599Z,9.00
2023-05-18T03:53:33.667Z,9.00
2023-05-18T03:56:00.570Z,9.00
2023-05-18T03:58:27.578Z,8.90
2023-05-18T04:00:54.742Z,8.90
2023-05-18T04:03:24.972Z,8.90
2023-05-18T04:05:53.328Z,8.80
2023-05-18T04:08:25.441Z,8.80
2023-05-18T04:10:52.806Z,8.80
2023-05-18T04:13:19.641Z,8.80
2023-05-18T04:15:47.574Z,8.80
2023-05-18T04:18:14.469Z,8.80
2023-05-18T04:20:42.614Z,8.80
2023-05-18T04:23:12.583Z,8.70
2023-05-18T04:25:41.665Z,8.70
2023-05-18T04:28:09.871Z,8.70
2023-05-18T04:30:37.659Z,8.70
2023-05-18T04:33:06.920Z,8.60
2023-05-18T04:35:34.205Z,8.60
2023-05-18T04:38:01.070Z,8.60
2023-05-18T04:40:27.917Z,8.60
2023-05-18T04:42:54.793Z,8.60
2023-05-18T04:45:22.013Z,8.60
2023-05-18T04:47:53.884Z,8.60
2023-05-18T04:50:25.492Z,8.60
2023-05-18T04:52:53.652Z,8.70
2023-05-18T04:55:28.236Z,8.70
2023-05-18T04:58:00.344Z,8.70
2023-05-18T05:00:29.884Z,8.70
2023-05-18T05:02:58.169Z,8.80
2023-05-18T05:05:26.692Z,8.80
2023-05-18T05:07:54.652Z,8.80
2023-05-18T05:10:22.193Z,8.80
2023-05-18T05:12:52.489Z,8.80
2023-05-18T05:15:20.431Z,8.80
2023-05-18T05:17:47.981Z,8.90
2023-05-18T05:20:15.211Z,8.90
2023-05-18T05:22:42.348Z,8.90
2023-05-18T05:25:09.616Z,9.00
2023-05-18T05:27:36.347Z,9.00
2023-05-18T05:30:05.211Z,9.00
2023-05-18T05:32:32.046Z,9.00
2023-05-18T05:34:58.910Z,9.00
2023-05-18T05:37:25.686Z,9.10
2023-05-18T05:39:52.539Z,9.00
2023-05-18T05:42:19.326Z,9.10
2023-05-18T05:44:46.202Z,9.20
2023-05-18T05:47:12.998Z,9.20
2023-05-18T05:49:39.771Z,9.10
2023-05-18T05:52:06.891Z,9.20
2023-05-18T05:54:33.798Z,9.20
2023-05-18T05:57:00.717Z,9.30
2023-05-18T05:59:27.560Z,9.30
2023-05-18T06:01:54.486Z,9.30
2023-05-18T06:04:21.445Z,9.30
2023-05-18T06:06:49.306Z,9.30
2023-05-18T06:09:17.242Z,9.40
2023-05-18T06:11:44.234Z,9.30
2023-05-18T06:14:12.002Z,9.40
2023-05-18T06:16:41.246Z,9.50
2023-05-18T06:19:08.233Z,9.50
2023-05-18T06:21:35.690Z,9.50
2023-05-18T06:24:04.560Z,9.50
2023-05-18T06:26:32.009Z,9.60
2023-05-18T06:28:58.876Z,9.60
2023-05-18T06:31:25.988Z,9.60
2023-05-18T06:33:54.029Z,9.60
2023-05-18T06:36:20.857Z,9.60
2023-05-18T06:38:47.707Z,9.60
2023-05-18T06:41:16.944Z,9.70
2023-05-18T06:43:43.686Z,9.70
2023-05-18T06:46:19.219Z,9.80
2023-05-18T06:48:47.129Z,9.90
2023-05-18T06:51:16.208Z,10.00
2023-05-18T06:53:43.523Z,10.10
2023-05-18T06:56:13.233Z,10.10
2023-05-18T06:58:41.737Z,10.20
2023-05-18T07:01:09.427Z,10.10
2023-05-18T07:03:42.101Z,10.20
2023-05-18T07:06:08.998Z,10.30
2023-05-18T07:08:38.553Z,10.40
2023-05-18T07:11:05.494Z,10.50
2023-05-18T07:13:32.629Z,10.60
2023-05-18T07:15:59.570Z,10.60
2023-05-18T07:18:26.914Z,10.70
2023-05-18T07:20:53.717Z,10.80
2023-05-18T07:23:22.405Z,10.90
2023-05-18T07:25:49.689Z,10.90
2023-05-18T07:28:17.043Z,11.00
2023-05-18T07:30:44.295Z,11.10
2023-05-18T07:33:11.183Z,11.20
2023-05-18T07:35:38.066Z,11.10
2023-05-18T07:38:04.862Z,11.10
2023-05-18T07:40:31.802Z,11.30
2023-05-18T07:42:58.628Z,11.20
2023-05-18T07:45:25.643Z,11.40
2023-05-18T07:47:52.778Z,11.40
2023-05-18T07:50:21.740Z,11.40
2023-05-18T07:52:48.532Z,11.40
2023-05-18T07:55:15.508Z,11.50
2023-05-18T07:57:42.664Z,11.50
2023-05-18T08:00:10.315Z,11.50
2023-05-18T08:02:37.770Z,11.60
2023-05-18T08:05:06.497Z,11.60
2023-05-18T08:07:33.687Z,11.50
2023-05-18T08:10:04.002Z,11.40
2023-05-18T08:12:31.043Z,11.50
2023-05-18T08:14:57.873Z,11.50
2023-05-18T08:17:24.785Z,11.70
2023-05-18T08:19:54.126Z,11.60
2023-05-18T08:22:21.725Z,11.60
2023-05-18T08:24:48.729Z,11.60
2023-05-18T08:27:15.620Z,11.70
2023-05-18T08:29:42.466Z,11.90
2023-05-18T08:32:09.287Z,12.00
2023-05-18T08:34:36.684Z,12.10
2023-05-18T08:37:03.769Z,12.30
2023-05-18T08:39:33.321Z,12.30
2023-05-18T08:42:45.662Z,12.30
2023-05-18T08:45:39.689Z,12.30
2023-05-18T08:48:07.957Z,12.40
2023-05-18T08:50:38.335Z,12.40
2023-05-18T08:53:06.581Z,12.40
2023-05-18T08:55:36.842Z,12.30
2023-05-18T08:58:07.574Z,12.30
2023-05-18T09:00:35.405Z,12.30
2023-05-18T09:03:05.340Z,12.60
2023-05-18T09:05:32.994Z,12.40
2023-05-18T09:08:03.335Z,12.50
2023-05-18T09:10:33.890Z,12.90
2023-05-18T09:13:04.609Z,13.10
2023-05-18T09:15:35.348Z,13.00
2023-05-18T09:18:02.446Z,13.40
2023-05-18T09:20:30.144Z,13.70
2023-05-18T09:22:57.228Z,13.70
2023-05-18T09:25:26.174Z,13.90
2023-05-18T09:27:53.230Z,14.20
2023-05-18T09:30:19.997Z,14.40
2023-05-18T09:32:48.093Z,14.50
2023-05-18T09:35:15.643Z,14.80
2023-05-18T09:37:43.637Z,14.60
2023-05-18T09:40:10.871Z,14.50
2023-05-18T09:42:43.362Z,14.50
2023-05-18T09:45:19.237Z,14.50
2023-05-18T09:47:46.878Z,14.60
2023-05-18T09:50:14.141Z,14.70
2023-05-18T09:52:43.552Z,14.80
2023-05-18T09:55:22.080Z,14.90
2023-05-18T09:57:52.470Z,15.00
2023-05-18T10:00:23.582Z,14.70
2023-05-18T10:02:54.564Z,14.30
2023-05-18T10:05:34.819Z,14.20
2023-05-18T10:08:05.576Z,14.30
2023-05-18T10:10:32.650Z,14.50
2023-05-18T10:13:01.458Z,14.70
2023-05-18T10:15:28.367Z,14.80
2023-05-18T10:18:03.378Z,14.80
2023-05-18T10:20:30.577Z,15.00
2023-05-18T10:23:05.184Z,15.20
2023-05-18T10:25:33.729Z,15.40
2023-05-18T10:28:06.941Z,15.50
2023-05-18T10:30:35.314Z,15.60
2023-05-18T10:33:11.257Z,15.50
2023-05-18T10:35:49.226Z,15.10
2023-05-18T10:38:22.728Z,15.30
2023-05-18T10:40:55.355Z,15.50
2023-05-18T10:43:27.916Z,15.70
2023-05-18T10:46:00.947Z,15.70
2023-05-18T10:48:30.349Z,15.60
2023-05-18T10:50:58.982Z,15.40
2023-05-18T10:53:29.377Z,15.40
2023-05-18T10:55:58.550Z,15.60
2023-05-18T10:58:31.676Z,15.50
2023-05-18T11:01:03.186Z,15.10
2023-05-18T11:03:40.899Z,15.30
2023-05-18T11:06:11.426Z,15.70
2023-05-18T11:08:49.998Z,15.50
2023-05-18T11:11:19.516Z,15.30
2023-05-18T11:13:51.637Z,15.50
2023-05-18T11:16:20.978Z,15.40
2023-05-18T11:18:52.955Z,15.60
2023-05-18T11:21:21.400Z,15.20
2023-05-18T11:24:33.436Z,15.10
2023-05-18T11:27:19.594Z,15.30
2023-05-18T11:29:51.897Z,15.80
2023-05-18T11:32:33.033Z,15.80
2023-05-18T11:35:00.705Z,15.50
2023-05-18T11:37:42.781Z,15.50
2023-05-18T11:40:48.851Z,15.30
2023-05-18T11:43:24.695Z,15.00
2023-05-18T11:45:59.400Z,15.60
2023-05-18T11:48:30.232Z,15.60
2023-05-18T11:50:57.181Z,15.80
2023-05-18T11:53:26.293Z,15.70
2023-05-18T11:55:56.778Z,15.90
2023-05-18T11:58:26.984Z,15.60
2023-05-18T12:00:55.881Z,15.70
2023-05-18T12:03:26.919Z,15.90
2023-05-18T12:05:58.459Z,16.10
2023-05-18T12:08:34.394Z,15.90
2023-05-18T12:11:03.073Z,16.10
2023-05-18T12:13:30.753Z,16.00
2023-05-18T12:15:59.189Z,15.90
2023-05-18T12:18:30.143Z,15.90
2023-05-18T12:20:56.956Z,16.20
2023-05-18T12:23:39.548Z,15.90
2023-05-18T12:26:07.362Z,15.60
2023-05-18T12:29:05.149Z,15.70
2023-05-18T12:31:32.241Z,15.60
2023-05-18T12:34:07.681Z,16.00
2023-05-18T12:36:34.516Z,16.40
2023-05-18T12:39:02.696Z,16.30
2023-05-18T12:41:29.938Z,16.50
2023-05-18T12:43:58.294Z,16.80
2023-05-18T12:46:25.422Z,17.10
2023-05-18T12:49:01.515Z,17.10
2023-05-18T12:51:38.909Z,17.10
2023-05-18T12:54:08.657Z,17.40
2023-05-18T12:57:03.043Z,17.50
2023-05-18T12:59:29.888Z,17.40
2023-05-18T13:01:58.591Z,17.60
2023-05-18T13:04:35.507Z,17.80
2023-05-18T13:07:02.494Z,17.90
2023-05-18T13:09:29.400Z,18.00
2023-05-18T13:12:07.958Z,17.90
2023-05-18T13:14:38.380Z,17.90
2023-05-18T13:17:05.534Z,17.90
2023-05-18T13:19:36.662Z,17.80
2023-05-18T13:22:03.723Z,18.10
2023-05-18T13:24:30.595Z,18.00
2023-05-18T13:26:57.328Z,18.00
2023-05-18T13:29:24.087Z,17.80
2023-05-18T13:31:50.941Z,17.90
2023-05-18T13:34:17.725Z,18.00
2023-05-18T13:36:44.463Z,18.30
2023-05-18T13:39:11.497Z,18.50
2023-05-18T13:41:38.337Z,18.40
2023-05-18T13:44:05.371Z,18.50
2023-05-18T13:46:32.286Z,18.40
2023-05-18T13:48:59.119Z,18.40
2023-05-18T13:51:27.331Z,18.70
2023-05-18T13:53:54.136Z,18.80
2023-05-18T13:56:22.413Z,18.60
2023-05-18T13:58:50.294Z,18.30
2023-05-18T14:01:17.909Z,18.20
2023-05-18T14:03:44.806Z,18.10
2023-05-18T14:06:11.898Z,18.30
2023-05-18T14:08:39.769Z,18.70
2023-05-18T14:11:06.587Z,18.70
2023-05-18T14:13:33.336Z,19.00
2023-05-18T14:16:01.508Z,19.00
2023-05-18T14:18:28.236Z,19.00
2023-05-18T14:20:57.612Z,18.80
2023-05-18T14:23:24.354Z,18.40
2023-05-18T14:25:51.141Z,18.30
2023-05-18T14:28:17.907Z,18.50
2023-05-18T14:30:44.691Z,18.80
2023-05-18T14:33:11.591Z,18.70
2023-05-18T14:35:40.165Z,18.80
2023-05-18T14:38:07.044Z,18.70
2023-05-18T14:40:34.904Z,19.00
2023-05-18T14:43:01.683Z,19.20
2023-05-18T14:45:28.484Z,19.20
2023-05-18T14:47:55.402Z,18.90
2023-05-18T14:50:22.328Z,18.80
2023-05-18T14:52:49.198Z,18.80
2023-05-18T14:55:16.211Z,18.70
2023-05-18T14:57:43.044Z,18.60
2023-05-18T15:00:12.187Z,18.60
2023-05-18T15:02:39.033Z,18.50
2023-05-18T15:05:07.602Z,18.70
2023-05-18T15:07:34.479Z,18.90
2023-05-18T15:10:01.288Z,18.90
2023-05-18T15:12:28.125Z,18.60
2023-05-18T15:14:54.927Z,18.80
2023-05-18T15:17:21.790Z,18.90
2023-05-18T15:19:48.576Z,18.80
2023-05-18T15:22:15.383Z,18.80
2023-05-18T15:24:42.376Z,18.80
2023-05-18T15:27:10.412Z,18.70
2023-05-18T15:29:37.179Z,18.60
2023-05-18T15:32:04.371Z,18.80
2023-05-18T15:34:33.464Z,18.70
2023-05-18T15:37:01.437Z,18.80
2023-05-18T15:39:28.971Z,18.70
2023-05-18T15:41:56.372Z,18.60
2023-05-18T15:44:23.198Z,18.60
2023-05-18T15:46:51.074Z,18.70
2023-05-18T15:49:18.673Z,18.90
2023-05-18T15:51:45.597Z,19.10
2023-05-18T15:54:13.078Z,19.20
2023-05-18T15:56:39.825Z,19.20
2023-05-18T15:59:08.307Z,19.10
2023-05-18T16:01:35.769Z,19.10
2023-05-18T16:04:03.002Z,19.10
2023-05-18T16:06:29.834Z,19.10
2023-05-18T16:08:56.667Z,19.10
2023-05-18T16:11:23.527Z,19.00
2023-05-18T16:13:53.806Z,19.10
2023-05-18T16:16:22.832Z,19.10
2023-05-18T16:18:49.974Z,19.00
2023-05-18T16:21:17.556Z,19.00
2023-05-18T16:23:48.023Z,19.00
2023-05-18T16:26:15.011Z,19.20
2023-05-18T16:28:41.843Z,19.20
2023-05-18T16:31:10.927Z,19.30
2023-05-18T16:33:41.036Z,19.20
2023-05-18T16:36:08.365Z,19.00
2023-05-18T16:38:37.263Z,19.20
2023-05-18T16:41:05.268Z,18.90
2023-05-18T16:43:33.253Z,19.00
2023-05-18T16:46:00.210Z,19.20
2023-05-18T16:48:27.395Z,19.10
2023-05-18T16:50:54.175Z,19.20
2023-05-18T16:53:21.077Z,19.40
2023-05-18T16:55:48.332Z,19.50
2023-05-18T16:58:15.117Z,19.60
2023-05-18T17:00:41.902Z,19.60
2023-05-18T17:03:08.743Z,19.40
2023-05-18T17:05:36.854Z,19.20
2023-05-18T17:08:03.666Z,19.20
2023-05-18T17:10:32.030Z,19.10
2023-05-18T17:13:02.098Z,19.20
2023-05-18T17:15:30.559Z,19.10
2023-05-18T17:17:57.799Z,19.10
2023-05-18T17:20:25.066Z,19.30
2023-05-18T17:22:52.229Z,19.20
2023-05-18T17:25:19.391Z,19.20
2023-05-18T17:27:46.262Z,19.10
2023-05-18T17:30:13.254Z,19.10
2023-05-18T17:32:40.067Z,19.00
2023-05-18T17:35:12.473Z,18.90
2023-05-18T17:37:41.431Z,19.00
2023-05-18T17:40:09.745Z,19.00
2023-05-18T17:42:36.834Z,19.00
2023-05-18T17:45:04.202Z,18.90
2023-05-18T17:47:33.038Z,18.70
2023-05-18T17:49:59.872Z,18.70
2023-05-18T17:52:26.744Z,18.50
2023-05-18T17:54:53.562Z,18.40
2023-05-18T17:57:22.874Z,18.20
2023-05-18T17:59:49.648Z,18.20
2023-05-18T18:02:16.542Z,18.20
2023-05-18T18:04:43.391Z,18.10
2023-05-18T18:07:10.191Z,18.00
2023-05-18T18:09:37.805Z,18.00
2023-05-18T18:12:04.937Z,18.00
2023-05-18T18:14:31.800Z,18.00
2023-05-18T18:16:59.934Z,18.00
2023-05-18T18:19:27.178Z,17.90
2023-05-18T18:21:54.677Z,17.90
2023-05-18T18:24:23.382Z,17.90
2023-05-18T18:26:52.565Z,17.80
2023-05-18T18:29:19.856Z,17.80
2023-05-18T18:31:46.836Z,17.90
2023-05-18T18:34:13.649Z,17.80
2023-05-18T18:36:41.933Z,17.90
2023-05-18T18:39:08.799Z,17.90
2023-05-18T18:41:35.807Z,18.00
2023-05-18T18:44:04.897Z,18.00
2023-05-18T18:46:32.376Z,17.90
2023-05-18T18:48:59.242Z,17.90
2023-05-18T18:51:26.079Z,17.80
2023-05-18T18:53:52.912Z,17.70
2023-05-18T18:56:22.224Z,17.70
2023-05-18T18:58:50.418Z,17.70
2023-05-18T19:01:17.306Z,17.60
2023-05-18T19:03:44.474Z,17.70
2023-05-18T19:06:11.423Z,17.60
2023-05-18T19:08:38.213Z,17.60
2023-05-18T19:11:05.103Z,17.50
2023-05-18T19:13:31.901Z,17.50
2023-05-18T19:15:58.918Z,17.50
2023-05-18T19:18:25.779Z,17.50
2023-05-18T19:20:52.557Z,17.40
2023-05-18T19:23:19.356Z,17.40
2023-05-18T19:25:46.228Z,17.40
2023-05-18T19:28:13.075Z,17.40
2023-05-18T19:30:39.893Z,17.40
2023-05-18T19:33:06.738Z,17.30
2023-05-18T19:35:33.899Z,17.20
2023-05-18T19:38:02.402Z,17.20
2023-05-18T19:40:29.414Z,17.10
2023-05-18T19:42:56.215Z,17.00
2023-05-18T19:45:23.008Z,17.00
2023-05-18T19:47:49.840Z,17.00
2023-05-18T19:50:16.876Z,16.90
2023-05-18T19:52:43.981Z,16.90
2023-05-18T19:55:10.872Z,16.80
2023-05-18T19:57:37.834Z,16.80
2023-05-18T20:00:10.864Z,16.80
2023-05-18T20:02:37.871Z,16.70
2023-05-18T20:05:06.930Z,16.70
2023-05-18T20:07:34.247Z,16.60
2023-05-18T20:10:01.091Z,16.50
2023-05-18T20:12:28.337Z,16.40
2023-05-18T20:14:55.176Z,16.10
2023-05-18T20:17:22.032Z,16.00
2023-05-18T20:19:52.094Z,15.90
2023-05-18T20:22:19.626Z,15.80
2023-05-18T20:24:46.527Z,15.80
2023-05-18T20:27:15.192Z,15.80
2023-05-18T20:29:42.308Z,15.60
2023-05-18T20:32:09.487Z,15.60
2023-05-18T20:34:36.619Z,15.40
2023-05-18T20:37:04.115Z,15.30
2023-05-18T20:39:31.122Z,15.20
2023-05-18T20:41:58.664Z,15.10
2023-05-18T20:44:27.960Z,15.10
2023-05-18T20:46:56.023Z,15.20
2023-05-18T20:49:24.876Z,15.00
2023-05-18T20:51:51.886Z,15.00
2023-05-18T20:54:18.962Z,15.00
2023-05-18T20:56:51.359Z,15.00
2023-05-18T20:59:18.310Z,15.00
2023-05-18T21:01:45.353Z,15.00
2023-05-18T21:04:13.300Z,15.00
2023-05-18T21:06:40.849Z,14.90
2023-05-18T21:09:08.575Z,14.80
2023-05-18T21:11:35.765Z,14.70
2023-05-18T21:14:02.633Z,14.70
2023-05-18T21:16:29.727Z,14.60
2023-05-18T21:18:59.417Z,14.60
2023-05-18T21:21:26.276Z,14.40
2023-05-18T21:23:53.158Z,14.40
2023-05-18T21:26:20.540Z,14.40
2023-05-18T21:28:47.416Z,14.40
2023-05-18T21:31:14.353Z,14.30
2023-05-18T21:33:47.820Z,14.30
2023-05-18T21:36:15.869Z,14.30
2023-05-18T21:38:43.112Z,14.10
2023-05-18T21:41:10.213Z,14.00
2023-05-18T21:43:36.998Z,14.10
2023-05-18T21:46:09.177Z,14.10
2023-05-18T21:48:36.836Z,14.00
2023-05-18T21:51:04.316Z,14.00
2023-05-18T21:53:31.081Z,14.00
2023-05-18T21:55:57.969Z,14.00
2023-05-18T21:58:25.044Z,14.00
2023-05-18T22:00:52.031Z,14.00
2023-05-18T22:03:18.822Z,13.90
2023-05-18T22:05:45.667Z,13.80
2023-05-18T22:08:12.425Z,13.70
2023-05-18T22:10:39.350Z,13.60
2023-05-18T22:13:06.253Z,13.50
2023-05-18T22:15:35.946Z,13.60
2023-05-18T22:18:04.055Z,13.50
2023-05-18T22:20:33.268Z,13.60
2023-05-18T22:23:00.454Z,13.50
2023-05-18T22:25:27.575Z,13.60
2023-05-18T22:27:54.779Z,13.50
2023-05-18T22:30:23.830Z,13.50
2023-05-18T22:32:51.797Z,13.50
2023-05-18T22:35:18.790Z,13.50
2023-05-18T22:37:46.484Z,13.40
2023-05-18T22:40:13.529Z,13.40
2023-05-18T22:42:40.768Z,13.40
2023-05-18T22:45:09.649Z,13.40
2023-05-18T22:47:39.361Z,13.40
2023-05-18T22:50:07.651Z,13.40
2023-05-18T22:52:35.276Z,13.40
2023-05-18T22:55:05.417Z,13.40
2023-05-18T22:57:32.819Z,13.30
2023-05-18T22:59:59.545Z,13.30
2023-05-18T23:02:27.153Z,13.30
2023-05-18T23:04:54.042Z,13.20
2023-05-18T23:07:23.606Z,13.20
2023-05-18T23:09:52.198Z,13.20
2023-05-18T23:12:20.321Z,13.20
2023-05-18T23:14:49.627Z,13.20
2023-05-18T23:17:22.851Z,13.20
2023-05-18T23:19:50.715Z,13.10
2023-05-18T23:22:17.567Z,13.00
2023-05-18T23:24:44.511Z,12.90
2023-05-18T23:27:11.678Z,12.90
2023-05-18T23:29:38.775Z,12.80
2023-05-18T23:32:06.076Z,12.80
2023-05-18T23:34:33.178Z,12.80
2023-05-18T23:37:04.264Z,12.70
2023-05-18T23:39:32.239Z,12.60
2023-05-18T23:42:01.795Z,12.60
2023-05-18T23:44:29.688Z,12.60
2023-05-18T23:46:57.008Z,12.40
2023-05-18T23:49:24.142Z,12.40
2023-05-18T23:52:03.862Z,12.40
2023-05-18T23:54:31.023Z,12.30
2023-05-18T23:56:59.594Z,12.30
2023-05-18T23:59:31.999Z,12.20
